• Join FlightAware (Why Join?)
  • Login
  • US Flag 
01:53AM EST


 

Airport Tracker/Info


-or-


 

Live Flight TrackerFlight Track Log ✈ UAL692 ✈ 12-Jul-2013 ✈ KIAH - KPIT

Flight Track Log - Related Links

Times and Time Zones

All times are in EDT time to prevent confusion due to time zone crossing. See the UAL692 flight status page for this flight to view local times or setup timezone preferences in your user account.

Time Position Orientation Groundspeed Altitude Reporting Facility
EDT Latitude Longitude Course Direction KTS MPH feet Rate Location/Type
08:13AM 29.9553 -95.3419 30° Northeast 171 197 800  Level Houston Center
08:13AM 29.9478 -95.3742 255° West 184 212 1,700 1,800 Climbing Houston Center
08:14AM 30.0158 -95.3611 North 291 335 4,200 2,880 Climbing Houston Center
08:15AM 30.2557 -95.1048 28° Northeast  Level FlightAware Approximate
08:16AM 30.3525 -95.0380 35° Northeast  Level FlightAware Approximate
08:16AM 30.0911 -95.2981 36° Northeast 263 303 8,800  Level Houston Center
08:17AM 30.4417 -94.9583 41° Northeast  Level FlightAware Approximate
08:17AM 30.1550 -95.2444 36° Northeast 279 321 11,800  Level Houston Center
08:18AM 30.5383 -94.8911 30° Northeast  Level FlightAware Approximate
08:18AM 30.2339 -95.1747 37° Northeast 296 341 14,500  Level Houston Center
08:19AM 30.3100 -95.1058 38° Northeast 344 396 16,100 1,860 Climbing Houston Center
08:20AM 30.3919 -95.0361 36° Northeast 362 417 18,400 1,800 Climbing Houston Center
08:21AM 30.4681 -94.9656 39° Northeast 372 428 19,900 1,500 Climbing Houston Center
08:22AM 30.5547 -94.8914 36° Northeast 383 441 21,500 1,680 Climbing Houston Center
08:23AM 30.6661 -94.8058 33° Northeast 399 459 23,400 1,560 Climbing Houston Center
08:24AM 30.7608 -94.7333 33° Northeast 409 471 24,700 1,260 Climbing Houston Center
08:25AM 30.8575 -94.6583 34° Northeast 416 479 26,100 1,380 Climbing Houston Center
08:26AM 30.9536 -94.5825 34° Northeast 419 482 27,600 1,260 Climbing Houston Center
08:27AM 31.0519 -94.5047 34° Northeast 429 494 28,800 1,080 Climbing Houston Center
08:28AM 31.1519 -94.4281 33° Northeast 436 502 29,900 1,140 Climbing Houston Center
08:29AM 31.2714 -94.3261 36° Northeast 453 521 31,200 1,140 Climbing Houston Center
08:30AM 31.3533 -94.2142 49° Northeast 459 528 32,300 1,200 Climbing Houston Center
08:31AM 31.4339 -94.1017 50° Northeast 454 522 33,700 1,320 Climbing Houston Center
08:32AM 31.5119 -93.9889 51° Northeast 448 516 35,100 1,260 Climbing Houston Center
08:33AM 31.5894 -93.8786 50° Northeast 441 507 36,300 900 Climbing Houston Center
08:34AM 31.6661 -93.7686 51° Northeast 437 503 37,000 300 Climbing Houston Center
08:35AM 31.7422 -93.6586 51° Northeast 436 502 37,000  Level Houston Center
08:36AM 31.8264 -93.5375 51° Northeast 439 505 37,000  Level Houston Center
08:37AM 31.9022 -93.4272 51° Northeast 435 501 37,000  Level Houston Center
08:38AM 31.9797 -93.3153 51° Northeast 440 506 37,000  Level Houston Center
08:39AM 32.0558 -93.2025 51° Northeast 440 506 37,000  Level Houston Center
08:41AM 32.1669 -93.0453 50° Northeast 438 504 37,000  Level Fort Worth Center
08:42AM 32.2444 -92.9333 51° Northeast 438 504 37,000  Level Fort Worth Center
08:43AM 32.3175 -92.8217 52° Northeast 438 504 37,000  Level Fort Worth Center
08:44AM 32.3928 -92.7119 51° Northeast 438 504 37,000  Level Fort Worth Center
08:45AM 32.4736 -92.5872 52° Northeast 443 510 37,000  Level Fort Worth Center
08:46AM 32.5447 -92.4800 52° Northeast 438 504 37,000  Level Fort Worth Center
08:47AM 32.6178 -92.3747 50° Northeast 424 488 37,000  Level Fort Worth Center
08:49AM 32.7997 -92.0947 52° Northeast 453 521 37,100  Climbing Memphis Center
08:50AM 32.8658 -91.9947 52° Northeast 441 507 37,100  Level Memphis Center
08:51AM 32.9361 -91.8794 54° Northeast 428 493 37,100 -60 Level Memphis Center
08:52AM 33.0147 -91.7719 49° Northeast 428 493 37,000 -60 Descending Memphis Center
08:53AM 33.0889 -91.6589 52° Northeast 428 493 37,000  Level Memphis Center
08:54AM 33.1611 -91.5483 52° Northeast 428 493 37,000  Level Memphis Center
08:55AM 33.2394 -91.4253 53° Northeast 428 493 37,000  Level Memphis Center
08:56AM 33.3133 -91.3142 51° Northeast 428 493 37,000  Level Memphis Center
08:57AM 33.3872 -91.2031 51° Northeast 428 493 37,000  Level Memphis Center
08:58AM 33.4589 -91.0917 52° Northeast 423 487 37,000  Level Memphis Center
08:59AM 33.5306 -90.9803 52° Northeast 423 487 37,000  Level Memphis Center
09:00AM 33.6019 -90.8708 52° Northeast 418 481 37,000  Level Memphis Center
09:01AM 33.6733 -90.7592 52° Northeast 418 481 37,000  Level Memphis Center
09:02AM 33.7444 -90.6469 53° Northeast 418 481 37,000  Level Memphis Center
09:03AM 33.8158 -90.5347 53° Northeast 413 475 37,000  Level Memphis Center
09:04AM 33.8783 -90.4372 52° Northeast 413 475 37,000  Level Memphis Center
09:05AM 33.9472 -90.3247 54° Northeast 413 475 37,000  Level Memphis Center
09:06AM 34.0181 -90.2119 53° Northeast 418 481 37,000  Level Memphis Center
09:07AM 34.0889 -90.1014 52° Northeast 418 481 37,100  Climbing Memphis Center
09:08AM 34.1575 -89.9908 53° Northeast 418 481 37,100 -60 Level Memphis Center
09:09AM 34.2322 -89.8697 53° Northeast 413 475 37,000 -60 Descending Memphis Center
09:10AM 34.3006 -89.7586 53° Northeast 413 475 37,000  Level Memphis Center
09:11AM 34.3689 -89.6475 53° Northeast 413 475 37,000  Level Memphis Center
09:12AM 34.4392 -89.5336 53° Northeast 413 475 37,000  Level Memphis Center
09:13AM 34.5092 -89.4219 53° Northeast 418 481 37,000  Level Memphis Center
09:14AM 34.5772 -89.3078 54° Northeast 418 481 37,000  Level Memphis Center
09:15AM 34.6472 -89.1958 53° Northeast 418 481 37,000  Level Memphis Center
09:16AM 34.7169 -89.0811 54° Northeast 418 481 37,000  Level Memphis Center
09:17AM 34.7847 -88.9739 52° Northeast 412 474 37,000  Level Memphis Center
09:18AM 34.8542 -88.8589 54° Northeast 412 474 37,000  Level Memphis Center
09:19AM 34.9117 -88.7667 53° Northeast 417 480 37,000  Level Memphis Center
09:20AM 34.9931 -88.6308 54° Northeast 417 480 37,100  Climbing Memphis Center
09:21AM 35.0603 -88.5178 54° Northeast 417 480 37,000 -60 Descending Memphis Center
09:22AM 35.1256 -88.4200 51° Northeast 412 474 37,000  Level Memphis Center
09:23AM 35.1928 -88.3067 54° Northeast 412 474 37,000  Level Memphis Center
09:24AM 35.2636 -88.1878 54° Northeast 418 481 37,000  Level Memphis Center
09:25AM 35.3325 -88.0742 53° Northeast 418 481 37,100  Climbing Memphis Center
09:26AM 35.4072 -87.9422 55° Northeast 418 481 37,100 -60 Level Memphis Center
09:27AM 35.4700 -87.8408 53° Northeast 418 481 37,000 -60 Descending Memphis Center
09:28AM 35.5342 -87.7242 56° Northeast 418 481 37,000  Level Memphis Center
09:29AM 35.6047 -87.6069 53° Northeast 418 481 37,000  Level Memphis Center
09:30AM 35.6789 -87.4792 54° Northeast 418 481 37,000  Level Memphis Center
09:31AM 35.7492 -87.3617 54° Northeast 418 481 37,000  Level Memphis Center
09:32AM 35.8169 -87.2414 55° Northeast 418 481 37,100  Climbing Memphis Center
09:33AM 35.8850 -87.1211 55° Northeast 423 487 37,100 -60 Level Memphis Center
09:34AM 35.9547 -87.0003 54° Northeast 428 493 37,000 -60 Descending Memphis Center
09:35AM 36.0242 -86.8769 55° Northeast 433 498 37,000  Level Memphis Center
09:36AM 36.0917 -86.7558 55° Northeast 433 498 37,000  Level Memphis Center
09:37AM 36.1633 -86.6369 53° Northeast 433 498 37,000  Level Memphis Center
09:38AM 36.2392 -86.5256 50° Northeast 427 491 37,000  Level Memphis Center
09:39AM 36.3147 -86.4139 50° Northeast 427 491 37,000  Level Memphis Center
09:40AM 36.3906 -86.3044 49° Northeast 416 479 37,000  Level Memphis Center
09:42AM 36.5272 -86.1003 50° Northeast 423 487 37,000  Level Indianapolis Center
09:43AM 36.6028 -85.9861 50° Northeast 424 488 37,100  Climbing Indianapolis Center
09:44AM 36.6783 -85.8722 50° Northeast 423 487 37,000 -60 Descending Indianapolis Center
09:45AM 36.7569 -85.7519 51° Northeast 416 479 37,000 240 Level Indianapolis Center
09:46AM 36.8264 -85.6453 51° Northeast 421 484 37,500 420 Climbing Indianapolis Center
09:47AM 36.9017 -85.5286 51° Northeast 427 491 37,900 540 Climbing Indianapolis Center
09:48AM 36.9850 -85.4019 51° Northeast 439 505 38,700 480 Climbing Indianapolis Center
09:49AM 37.0703 -85.2714 51° Northeast 445 512 39,000 120 Climbing Indianapolis Center
09:50AM 37.1478 -85.1503 51° Northeast 443 510 39,000  Level Indianapolis Center
09:51AM 37.2269 -85.0261 51° Northeast 451 519 39,000  Level Indianapolis Center
09:52AM 37.3056 -84.9031 51° Northeast 450 518 39,000  Level Indianapolis Center
09:53AM 37.3978 -84.7575 51° Northeast 453 521 39,000  Level Indianapolis Center
09:54AM 37.4781 -84.6328 51° Northeast 454 522 39,000  Level Indianapolis Center
09:55AM 37.5578 -84.5053 52° Northeast 460 529 39,000  Level Indianapolis Center
09:56AM 37.6378 -84.3800 51° Northeast 458 527 39,000  Level Indianapolis Center
09:57AM 37.7175 -84.2519 52° Northeast 461 531 39,100  Climbing Indianapolis Center
09:59AM 37.7967 -84.1250 52° Northeast 457 526 39,000 -60 Descending Indianapolis Center
10:00AM 37.8894 -83.9764 52° Northeast 458 527 39,000  Level Indianapolis Center
10:01AM 37.9681 -83.8500 52° Northeast 455 524 39,000  Level Indianapolis Center
10:02AM 38.0481 -83.7200 52° Northeast 461 531 39,000  Level Indianapolis Center
10:03AM 38.1264 -83.5925 52° Northeast 457 526 39,000  Level Indianapolis Center
10:04AM 38.2053 -83.4625 52° Northeast 461 531 39,100  Climbing Indianapolis Center
10:05AM 38.2831 -83.3350 52° Northeast 455 524 39,000 -480 Descending Indianapolis Center
10:06AM 38.3753 -83.1853 52° Northeast 457 526 38,100 -960 Descending Indianapolis Center
10:07AM 38.4533 -83.0531 53° Northeast 462 532 37,100 -840 Descending Indianapolis Center
10:08AM 38.5300 -82.9264 52° Northeast 454 522 36,400 -840 Descending Indianapolis Center
10:09AM 38.6056 -82.8014 52° Northeast 443 510 35,400 -1,020 Descending Indianapolis Center
10:10AM 38.6858 -82.6664 53° Northeast 446 513 34,300 -1,020 Descending Indianapolis Center
10:11AM 38.7622 -82.5375 53° Northeast 452 520 33,300 -1,140 Descending Indianapolis Center
10:12AM 38.8403 -82.4069 52° Northeast 457 526 32,100 -1,500 Descending Indianapolis Center
10:13AM 38.9169 -82.2775 53° Northeast 455 524 30,200 -1,680 Descending Indianapolis Center
10:14AM 38.9911 -82.1517 53° Northeast 441 507 28,600 -1,380 Descending Indianapolis Center
10:15AM 39.0625 -82.0286 53° Northeast 430 495 27,500 -1,020 Descending Indianapolis Center
10:16AM 39.1331 -81.9094 53° Northeast 418 481 26,500 -1,260 Descending Indianapolis Center
10:17AM 39.2164 -81.7656 53° Northeast 416 479 25,000 -1,260 Descending Indianapolis Center
10:18AM 39.2828 -81.6517 53° Northeast 402 463 23,900 -1,080 Descending Indianapolis Center
10:19AM 39.3486 -81.5383 53° Northeast 395 455 22,800 -1,080 Descending Indianapolis Center
10:20AM 39.4119 -81.4272 54° Northeast 387 445 21,700 -900 Descending Indianapolis Center
10:21AM 39.4864 -81.3331 44° Northeast 378 435 21,000 -360 Descending Indianapolis Center
10:22AM 39.5703 -81.2514 37° Northeast 377 434 21,000  Level Indianapolis Center
10:23AM 39.6547 -81.1686 37° Northeast 379 436 21,000 -660 Level Indianapolis Center
10:24AM 39.7575 -81.0714 36° Northeast 380 437 19,700 -1,740 Descending Indianapolis Center
10:25AM 39.8403 -80.9903 37° Northeast 375 432 17,500 -2,220 Descending Indianapolis Center
10:26AM 39.9217 -80.9106 37° Northeast 367 422 15,100 -2,340 Descending Indianapolis Center
10:28AM 40.0039 -80.8336 36° Northeast 365 420 12,700 -2,280 Descending Indianapolis Center
10:29AM 40.0908 -80.7681 30° Northeast 360 414 10,500 -1,500 Descending Indianapolis Center
10:29AM 40.1567 -80.7217 28° Northeast 342 394 10,100 -840 Descending Cleveland Center
10:30AM 40.2297 -80.6675 30° Northeast 319 367 9,100 -1,320 Descending Cleveland Center
10:31AM 40.3006 -80.6103 32° Northeast 300 345 7,500 -1,500 Descending Cleveland Center
10:32AM 40.3736 -80.5531 31° Northeast 287 330 6,100 -1,440 Descending Cleveland Center